Time;durP1;ratioP1;P1;durP2;ratioP2;P2;SDS_P1;SDS_P2;PMS_P1;PMS_P2;Temp;Humidity;BMP_temperature;BMP_pressure;BME280_temperature;BME280_humidity;BME280_pressure;Samples;Min_cycle;Max_cycle;Signal;HPM_P1;HPM_P2
2021/04/18 00:02:14;;;;;;;6.17;3.97;;;10.60;52.00;;;;;;5095520;28;20444;-67
2021/04/18 00:04:40;;;;;;;6.27;3.50;;;10.60;51.90;;;;;;5095460;28;20550;-67
2021/04/18 00:07:06;;;;;;;5.10;3.70;;;10.60;52.10;;;;;;5095312;28;20467;-67
2021/04/18 00:09:33;;;;;;;5.87;3.90;;;10.50;52.10;;;;;;5095491;28;20457;-67
2021/04/18 00:11:59;;;;;;;12.40;4.77;;;10.50;52.20;;;;;;5094987;28;20944;-67
2021/04/18 00:14:26;;;;;;;6.07;4.03;;;10.50;52.40;;;;;;5095274;28;20820;-67
2021/04/18 00:16:52;;;;;;;10.80;4.23;;;10.40;52.40;;;;;;5094856;28;21029;-67
2021/04/18 00:19:19;;;;;;;9.10;3.93;;;10.40;52.50;;;;;;5095204;28;20444;-67
2021/04/18 00:21:46;;;;;;;4.03;3.57;;;10.30;52.50;;;;;;5095149;28;20812;-67
2021/04/18 00:24:12;;;;;;;7.00;3.87;;;10.30;52.80;;;;;;5095074;28;20444;-67
2021/04/18 00:26:38;;;;;;;6.27;4.00;;;10.30;52.90;;;;;;5094662;28;20969;-67
2021/04/18 00:29:04;;;;;;;6.77;4.30;;;10.30;53.10;;;;;;5095028;28;20444;-67
2021/04/18 00:31:31;;;;;;;4.80;3.93;;;10.20;53.10;;;;;;5094983;28;20454;-67
2021/04/18 00:33:57;;;;;;;4.10;3.20;;;10.20;53.20;;;;;;5094802;28;20852;-67
2021/04/18 00:36:24;;;;;;;4.20;3.40;;;10.10;53.30;;;;;;5094430;28;20460;-67
2021/04/18 00:38:50;;;;;;;6.13;3.33;;;10.00;53.30;;;;;;5094823;28;20458;-67
2021/04/18 00:41:16;;;;;;;5.60;3.70;;;10.00;53.50;;;;;;5094808;28;20816;-67
2021/04/18 00:43:43;;;;;;;9.60;3.73;;;9.90;54.30;;;;;;5094733;28;20444;-67
2021/04/18 00:46:10;;;;;;;5.63;3.73;;;9.90;54.60;;;;;;5094636;28;20464;-67
2021/04/18 00:48:40;;;;;;;5.63;3.13;;;9.90;55.00;;;;;;5094647;28;20447;-67
2021/04/18 00:51:07;;;;;;;4.37;3.73;;;9.80;54.90;;;;;;5095448;28;20448;-67
2021/04/18 00:53:34;;;;;;;4.10;3.20;;;9.70;54.60;;;;;;5094465;28;20506;-67
2021/04/18 00:56:01;;;;;;;5.20;3.27;;;9.70;54.70;;;;;;5094149;28;20480;-67
2021/04/18 00:58:27;;;;;;;5.40;3.07;;;9.60;54.90;;;;;;5094423;28;20447;-67
2021/04/18 01:00:53;;;;;;;5.77;3.47;;;9.50;55.00;;;;;;5094393;28;20442;-67
2021/04/18 01:03:20;;;;;;;4.50;3.40;;;9.50;55.40;;;;;;5094022;28;20809;-67
2021/04/18 01:05:46;;;;;;;4.70;3.30;;;9.40;55.50;;;;;;5094267;28;20466;-67
2021/04/18 01:08:12;;;;;;;5.17;3.80;;;9.40;55.70;;;;;;5094279;28;20513;-67
2021/04/18 01:10:40;;;;;;;3.50;2.93;;;9.40;55.90;;;;;;5094227;28;20454;-67
2021/04/18 01:13:06;;;;;;;4.97;3.10;;;9.40;56.00;;;;;;5094099;28;20533;-67
2021/04/18 01:15:33;;;;;;;4.37;3.90;;;9.30;56.00;;;;;;5093768;28;20494;-67
2021/04/18 01:17:59;;;;;;;4.10;3.07;;;9.30;56.20;;;;;;5094106;28;20452;-67
2021/04/18 01:20:25;;;;;;;6.20;3.30;;;9.30;56.50;;;;;;5094074;28;20446;-67
2021/04/18 01:22:53;;;;;;;4.70;2.97;;;9.20;56.60;;;;;;5094004;28;20449;-67
2021/04/18 01:25:19;;;;;;;4.40;3.50;;;9.10;56.60;;;;;;5093582;28;20956;-67
2021/04/18 01:27:48;;;;;;;5.17;3.03;;;9.10;56.90;;;;;;5093960;28;20493;-67
2021/04/18 01:30:16;;;;;;;3.57;2.50;;;9.00;57.00;;;;;;5093890;28;20530;-67
2021/04/18 01:32:45;;;;;;;4.57;3.03;;;9.00;57.10;;;;;;5093757;28;20487;-67
2021/04/18 01:35:13;;;;;;;4.33;3.27;;;9.00;57.50;;;;;;5093747;28;20447;-67
2021/04/18 01:37:40;;;;;;;5.43;3.53;;;8.90;57.50;;;;;;5093783;28;20450;-67
2021/04/18 01:40:11;;;;;;;3.57;3.23;;;8.90;57.90;;;;;;5093801;28;20494;-67
2021/04/18 01:42:37;;;;;;;3.70;3.37;;;8.90;57.80;;;;;;5093757;28;20515;-67
2021/04/18 01:45:05;;;;;;;6.00;3.53;;;8.90;58.00;;;;;;5093669;28;20448;-67
2021/04/18 01:47:31;;;;;;;4.83;3.10;;;8.80;58.00;;;;;;5093036;28;20450;-67
2021/04/18 01:49:57;;;;;;;5.13;3.63;;;8.80;58.80;;;;;;5093344;28;20938;-67
2021/04/18 01:52:24;;;;;;;7.77;3.77;;;8.80;58.30;;;;;;5093552;28;20502;-67
2021/04/18 01:54:51;;;;;;;5.47;4.07;;;8.80;58.50;;;;;;5093166;28;20913;-67
2021/04/18 01:57:18;;;;;;;6.80;3.57;;;8.70;58.50;;;;;;5093524;28;20460;-67
2021/04/18 01:59:44;;;;;;;7.33;3.90;;;8.80;58.80;;;;;;5093573;28;20495;-67
2021/04/18 02:02:12;;;;;;;3.80;3.50;;;8.80;59.00;;;;;;5093547;28;20487;-67
2021/04/18 02:04:39;;;;;;;4.70;3.90;;;8.70;59.10;;;;;;5093524;28;20443;-67
2021/04/18 02:07:07;;;;;;;5.97;3.70;;;8.80;59.20;;;;;;5093416;28;20468;-67
2021/04/18 02:09:34;;;;;;;5.97;4.00;;;8.70;59.30;;;;;;5093468;28;20474;-67
2021/04/18 02:12:02;;;;;;;4.20;3.73;;;8.80;59.70;;;;;;5093009;28;20443;-67
2021/04/18 02:14:30;;;;;;;4.03;3.60;;;8.80;59.90;;;;;;5093109;28;20964;-67
2021/04/18 02:16:56;;;;;;;5.10;3.37;;;8.80;59.60;;;;;;5093022;28;21113;-67
2021/04/18 02:19:23;;;;;;;3.63;3.10;;;8.80;59.80;;;;;;5093071;28;20937;-67
2021/04/18 02:21:49;;;;;;;5.13;3.37;;;8.80;59.90;;;;;;5093408;28;20439;-67
2021/04/18 02:24:16;;;;;;;5.07;3.60;;;8.80;60.30;;;;;;5093363;28;20420;-67
2021/04/18 02:26:42;;;;;;;7.53;4.33;;;8.80;60.70;;;;;;5093249;28;20467;-67
2021/04/18 02:29:09;;;;;;;5.73;4.00;;;8.80;60.60;;;;;;5093280;28;20453;-67
2021/04/18 02:31:36;;;;;;;4.27;3.57;;;8.80;60.90;;;;;;5093303;28;20439;-67
2021/04/18 02:34:02;;;;;;;3.37;3.07;;;8.80;61.40;;;;;;5092896;28;20473;-67
2021/04/18 02:36:29;;;;;;;7.17;4.07;;;8.90;61.60;;;;;;5093149;28;20463;-67
2021/04/18 02:38:55;;;;;;;7.13;5.40;;;8.90;61.30;;;;;;5093177;28;20464;-67
2021/04/18 02:41:22;;;;;;;6.30;4.20;;;8.90;61.40;;;;;;5093171;28;20440;-67
2021/04/18 02:43:49;;;;;;;4.40;3.53;;;8.90;61.90;;;;;;5093129;28;20440;-67
2021/04/18 02:46:15;;;;;;;6.87;3.70;;;8.90;61.30;;;;;;5092802;28;20484;-67
2021/04/18 02:48:42;;;;;;;4.93;3.20;;;8.90;61.40;;;;;;5093146;28;20439;-67
2021/04/18 02:51:08;;;;;;;4.57;4.17;;;9.00;61.60;;;;;;5093089;28;20440;-67
2021/04/18 02:53:35;;;;;;;12.30;3.63;;;9.00;61.60;;;;;;5093044;28;20527;-67
2021/04/18 02:56:01;;;;;;;4.50;4.10;;;9.00;61.50;;;;;;5092704;28;20472;-67
2021/04/18 02:58:27;;;;;;;5.60;4.03;;;9.00;61.60;;;;;;5094459;28;20440;-67
2021/04/18 03:00:53;;;;;;;8.63;3.87;;;9.00;61.80;;;;;;5096723;28;20448;-67
2021/04/18 03:03:20;;;;;;;5.73;3.67;;;9.00;61.60;;;;;;5096379;28;21002;-67
2021/04/18 03:05:47;;;;;;;4.60;3.97;;;9.00;61.80;;;;;;5096239;28;20475;-67
2021/04/18 03:08:13;;;;;;;6.97;4.67;;;8.90;61.70;;;;;;5096686;28;20967;-67
2021/04/18 03:10:39;;;;;;;6.17;4.10;;;9.00;62.20;;;;;;5096555;28;20444;-67
2021/04/18 03:13:05;;;;;;;6.50;4.40;;;8.90;62.00;;;;;;5096435;28;20505;-67
2021/04/18 03:15:32;;;;;;;7.83;3.60;;;8.90;61.90;;;;;;5096625;28;20474;-67
2021/04/18 03:17:59;;;;;;;5.47;4.03;;;8.90;62.30;;;;;;5096427;28;20442;-67
2021/04/18 03:20:26;;;;;;;4.63;3.80;;;8.90;61.70;;;;;;5096032;28;20490;-67
2021/04/18 03:22:53;;;;;;;4.67;4.17;;;8.90;61.90;;;;;;5096315;28;20443;-67
2021/04/18 03:25:19;;;;;;;6.00;4.53;;;8.90;62.60;;;;;;5096195;28;20450;-67
2021/04/18 03:27:45;;;;;;;6.00;4.10;;;8.80;63.30;;;;;;5096212;28;20440;-67
2021/04/18 03:30:13;;;;;;;6.23;4.67;;;8.80;62.70;;;;;;5095877;28;20448;-67
2021/04/18 03:32:39;;;;;;;5.43;4.50;;;8.80;63.00;;;;;;5096678;28;20476;-67
2021/04/18 03:35:07;;;;;;;5.60;4.03;;;8.80;63.10;;;;;;5095988;28;20496;-66
2021/04/18 03:37:33;;;;;;;6.40;4.63;;;8.80;63.30;;;;;;5096027;28;20478;-67
2021/04/18 03:40:00;;;;;;;7.93;4.47;;;8.80;63.10;;;;;;5095790;28;20933;-67
2021/04/18 03:42:26;;;;;;;7.40;4.00;;;8.90;63.10;;;;;;5095980;28;20440;-67
2021/04/18 03:44:53;;;;;;;5.93;4.47;;;8.90;63.30;;;;;;5095886;28;20450;-67
2021/04/18 03:47:19;;;;;;;8.63;4.40;;;8.90;63.40;;;;;;5095827;28;20467;-66
2021/04/18 03:49:45;;;;;;;6.37;4.03;;;8.90;63.70;;;;;;5095801;28;20451;-67
2021/04/18 03:52:11;;;;;;;8.77;5.13;;;8.90;64.00;;;;;;5095366;28;20459;-67
2021/04/18 03:54:37;;;;;;;7.50;4.80;;;8.90;64.50;;;;;;5095334;28;20523;-67
2021/04/18 03:57:05;;;;;;;7.43;4.70;;;8.90;64.50;;;;;;5095165;28;20530;-67
2021/04/18 03:59:31;;;;;;;7.10;5.10;;;8.80;64.10;;;;;;5095599;28;20440;-67
2021/04/18 04:01:58;;;;;;;6.10;4.47;;;8.70;64.10;;;;;;5095563;28;20450;-67
2021/04/18 04:04:24;;;;;;;5.43;4.50;;;8.70;64.50;;;;;;5095516;28;20440;-67
2021/04/18 04:06:50;;;;;;;9.33;4.33;;;8.70;64.80;;;;;;5095408;28;20593;-67
2021/04/18 04:09:16;;;;;;;6.17;4.60;;;8.70;65.00;;;;;;5094748;28;20448;-67
2021/04/18 04:11:42;;;;;;;7.67;5.00;;;8.70;65.20;;;;;;5095408;28;20522;-67
2021/04/18 04:14:10;;;;;;;6.20;4.67;;;8.70;65.00;;;;;;5095276;28;20486;-67
2021/04/18 04:16:36;;;;;;;7.27;5.67;;;8.70;65.60;;;;;;5095236;28;20827;-67
2021/04/18 04:19:02;;;;;;;10.07;5.37;;;8.60;65.50;;;;;;5095225;28;20440;-67
2021/04/18 04:21:28;;;;;;;6.90;5.57;;;8.40;66.80;;;;;;5095247;28;20941;-67
2021/04/18 04:23:55;;;;;;;6.90;5.17;;;8.30;67.30;;;;;;5094834;28;20450;-67
2021/04/18 04:26:21;;;;;;;9.03;6.00;;;8.40;68.00;;;;;;5095044;28;20483;-67
2021/04/18 04:28:47;;;;;;;6.10;4.83;;;8.40;68.50;;;;;;5095094;28;20447;-67
2021/04/18 04:31:14;;;;;;;10.03;5.50;;;8.50;68.70;;;;;;5095003;28;20450;-67
2021/04/18 04:33:41;;;;;;;6.37;5.13;;;8.50;68.10;;;;;;5094901;28;20483;-67
2021/04/18 04:36:08;;;;;;;7.70;5.27;;;8.40;67.90;;;;;;5094896;28;20464;-67
2021/04/18 04:38:34;;;;;;;7.80;5.37;;;8.40;67.70;;;;;;5094863;28;20443;-67
2021/04/18 04:41:01;;;;;;;10.07;5.07;;;8.40;67.90;;;;;;5094891;28;20439;-67
2021/04/18 04:43:27;;;;;;;10.87;5.57;;;8.50;68.10;;;;;;5094780;28;20495;-67
2021/04/18 04:45:53;;;;;;;7.80;5.50;;;8.50;68.20;;;;;;5094674;28;20466;-67
2021/04/18 04:48:21;;;;;;;6.90;5.30;;;8.50;68.30;;;;;;5094685;28;20810;-67
2021/04/18 04:50:47;;;;;;;8.20;5.93;;;8.60;68.20;;;;;;5094685;28;20505;-67
2021/04/18 04:53:14;;;;;;;8.20;6.00;;;8.60;68.10;;;;;;5094565;28;20475;-67
2021/04/18 04:55:42;;;;;;;9.50;5.33;;;8.60;67.90;;;;;;5094302;28;20487;-67
2021/04/18 04:58:08;;;;;;;7.93;4.90;;;8.60;68.70;;;;;;5094532;28;20784;-67
2021/04/18 05:00:35;;;;;;;9.40;6.27;;;8.60;68.80;;;;;;5094424;28;20445;-67
2021/04/18 05:03:01;;;;;;;9.57;6.57;;;8.60;68.20;;;;;;5094136;28;20447;-67
2021/04/18 05:05:28;;;;;;;14.17;5.77;;;8.50;68.90;;;;;;5094423;28;20460;-67
2021/04/18 05:07:55;;;;;;;11.53;7.10;;;8.40;69.90;;;;;;5094007;28;20451;-67
2021/04/18 05:10:21;;;;;;;15.70;6.50;;;8.30;70.20;;;;;;5094258;28;20513;-67
2021/04/18 05:12:47;;;;;;;9.13;6.43;;;8.30;70.90;;;;;;5094146;28;20479;-67
2021/04/18 05:15:14;;;;;;;8.87;5.93;;;8.20;71.70;;;;;;5094134;28;20818;-67
2021/04/18 05:17:40;;;;;;;10.03;6.07;;;8.20;72.10;;;;;;5093834;28;20440;-67
2021/04/18 05:20:07;;;;;;;10.13;7.20;;;8.30;72.20;;;;;;5094103;28;20448;-67
2021/04/18 05:22:34;;;;;;;11.10;7.37;;;8.30;72.30;;;;;;5093148;28;20451;-67
2021/04/18 05:25:01;;;;;;;10.63;7.20;;;8.20;72.70;;;;;;5094003;28;20523;-67
2021/04/18 05:27:27;;;;;;;13.77;7.50;;;8.10;73.40;;;;;;5093908;28;20466;-67
2021/04/18 05:29:53;;;;;;;10.53;6.43;;;8.10;74.00;;;;;;5094041;28;20448;-67
2021/04/18 05:32:20;;;;;;;12.23;7.90;;;8.00;74.60;;;;;;5093500;28;20443;-67
2021/04/18 05:34:48;;;;;;;15.90;7.73;;;8.10;74.80;;;;;;5093885;28;20453;-67
2021/04/18 05:37:15;;;;;;;11.83;9.10;;;8.20;75.00;;;;;;5093864;28;20469;-67
2021/04/18 05:39:42;;;;;;;10.83;8.00;;;8.20;74.70;;;;;;5093817;28;20447;-67
2021/04/18 05:42:08;;;;;;;12.37;7.63;;;8.30;74.50;;;;;;5093782;28;20447;-67
2021/04/18 05:44:35;;;;;;;11.03;7.57;;;8.40;74.30;;;;;;5093435;28;20468;-67
2021/04/18 05:47:01;;;;;;;13.50;8.03;;;8.50;74.10;;;;;;5093633;28;20463;-67
2021/04/18 05:49:28;;;;;;;10.50;7.37;;;8.60;73.90;;;;;;5093368;28;20937;-67
2021/04/18 05:51:54;;;;;;;14.30;7.63;;;8.70;73.50;;;;;;5093676;28;20501;-67
2021/04/18 05:54:20;;;;;;;8.77;7.17;;;8.80;73.00;;;;;;5093539;28;20508;-67
2021/04/18 05:56:47;;;;;;;12.27;8.17;;;8.90;73.00;;;;;;5093075;28;20480;-67
2021/04/18 05:59:14;;;;;;;12.37;7.27;;;9.00;73.00;;;;;;5093577;28;20443;-67
2021/04/18 06:01:40;;;;;;;12.03;7.40;;;9.00;72.60;;;;;;5093583;28;20505;-67
2021/04/18 06:04:06;;;;;;;12.03;7.10;;;9.00;72.00;;;;;;5093511;28;20502;-67
2021/04/18 06:06:33;;;;;;;11.53;7.37;;;9.10;71.40;;;;;;5093109;28;20973;-67
2021/04/18 06:08:59;;;;;;;17.17;8.27;;;9.10;71.70;;;;;;5093514;28;20496;-67
2021/04/18 06:11:25;;;;;;;15.00;8.20;;;9.10;71.70;;;;;;5094023;28;20471;-67
2021/04/18 06:13:52;;;;;;;12.10;7.73;;;9.10;72.00;;;;;;5093390;28;20536;-67
2021/04/18 06:16:19;;;;;;;15.40;8.70;;;9.10;72.10;;;;;;5093369;28;20463;-67
2021/04/18 06:18:45;;;;;;;10.20;7.63;;;8.90;72.50;;;;;;5093420;28;20456;-67
2021/04/18 06:21:11;;;;;;;15.23;7.93;;;8.90;73.40;;;;;;5093208;28;20472;-67
2021/04/18 06:23:37;;;;;;;14.90;8.50;;;8.80;73.90;;;;;;5093046;28;20538;-67
2021/04/18 06:26:04;;;;;;;18.03;7.97;;;8.80;75.30;;;;;;5093022;28;20810;-67
2021/04/18 06:28:30;;;;;;;16.43;9.43;;;8.70;76.20;;;;;;5093183;28;20432;-67
2021/04/18 06:30:57;;;;;;;15.60;9.07;;;8.80;76.50;;;;;;5092987;28;20444;-67
2021/04/18 06:33:24;;;;;;;13.00;8.60;;;8.80;76.70;;;;;;5094769;28;20576;-67
2021/04/18 06:35:50;;;;;;;17.67;8.60;;;8.70;77.00;;;;;;5096919;28;20471;-67
2021/04/18 06:38:16;;;;;;;16.03;7.87;;;8.80;77.70;;;;;;5096547;28;20444;-67
2021/04/18 06:40:43;;;;;;;18.70;9.40;;;8.80;77.40;;;;;;5096933;28;20440;-67
2021/04/18 06:43:11;;;;;;;13.37;9.10;;;8.70;77.70;;;;;;5096947;28;20443;-67
2021/04/18 06:45:38;;;;;;;15.30;9.40;;;8.70;78.40;;;;;;5096721;28;20468;-67
2021/04/18 06:48:06;;;;;;;12.57;9.83;;;8.80;78.60;;;;;;5096561;28;20432;-67
2021/04/18 06:50:33;;;;;;;13.10;8.23;;;8.90;78.20;;;;;;5096651;28;20446;-66
2021/04/18 06:52:59;;;;;;;11.63;8.43;;;9.10;77.00;;;;;;5096960;28;20470;-67
2021/04/18 06:55:26;;;;;;;13.50;9.00;;;9.20;76.50;;;;;;5096716;28;20457;-67
2021/04/18 06:57:52;;;;;;;19.07;9.70;;;9.50;75.70;;;;;;5096853;28;20445;-67
2021/04/18 07:00:20;;;;;;;16.53;9.70;;;9.60;74.80;;;;;;5095824;28;20456;-67
2021/04/18 07:02:46;;;;;;;16.67;8.63;;;9.80;74.90;;;;;;5096746;28;20444;-67
2021/04/18 07:05:15;;;;;;;11.30;8.00;;;10.00;71.90;;;;;;5096594;28;20451;-67
2021/04/18 07:07:43;;;;;;;10.67;8.50;;;10.10;71.40;;;;;;5096654;28;20466;-67
2021/04/18 07:10:13;;;;;;;15.80;9.53;;;10.30;70.80;;;;;;5096892;28;20859;-67
2021/04/18 07:12:39;;;;;;;12.10;8.40;;;10.40;69.80;;;;;;5096373;28;20501;-68
2021/04/18 07:15:07;;;;;;;13.87;10.00;;;10.40;69.80;;;;;;5096560;28;20445;-68
2021/04/18 07:17:33;;;;;;;12.17;8.20;;;10.60;68.80;;;;;;5096514;28;20451;-69
2021/04/18 07:20:11;;;;;;;13.23;8.20;;;10.70;68.80;;;;;;5096402;28;20454;-68
2021/04/18 07:22:38;;;;;;;15.03;8.90;;;10.70;67.60;;;;;;5096430;28;20820;-68
2021/04/18 07:25:06;;;;;;;13.23;8.33;;;10.70;67.70;;;;;;5096053;28;20928;-68
2021/04/18 07:27:48;;;;;;;16.13;8.97;;;10.90;67.90;;;;;;5095872;28;20469;-68
2021/04/18 07:30:17;;;;;;;17.27;9.40;;;11.00;67.90;;;;;;5094482;28;20456;-67
2021/04/18 07:32:44;;;;;;;11.63;8.57;;;11.00;67.80;;;;;;5095937;28;20906;-67
2021/04/18 07:35:31;;;;;;;20.00;10.33;;;11.00;67.80;;;;;;5096313;28;20440;-67
2021/04/18 07:38:14;;;;;;;15.70;9.40;;;11.00;68.00;;;;;;5096137;28;20493;-67
2021/04/18 07:40:40;;;;;;;13.07;9.57;;;11.00;67.90;;;;;;5096105;28;20439;-67
2021/04/18 07:43:08;;;;;;;13.67;9.67;;;10.90;67.80;;;;;;5097997;28;20493;-72
2021/04/18 07:45:35;;;;;;;14.63;8.77;;;11.10;69.00;;;;;;5094903;28;20827;-67
2021/04/18 07:48:02;;;;;;;15.13;10.57;;;11.30;67.20;;;;;;5095867;28;20428;-67
2021/04/18 07:50:29;;;;;;;16.93;10.00;;;11.50;67.60;;;;;;5095790;28;20443;-67
2021/04/18 07:52:56;;;;;;;13.73;9.10;;;11.60;67.10;;;;;;5095349;28;20988;-67
2021/04/18 07:55:23;;;;;;;13.80;10.47;;;11.80;66.00;;;;;;5095356;28;20517;-67
2021/04/18 07:57:51;;;;;;;13.33;9.40;;;12.00;65.70;;;;;;5095898;28;20447;-70
2021/04/18 08:00:18;;;;;;;13.37;9.67;;;12.30;65.00;;;;;;5095770;28;20466;-67
2021/04/18 08:02:48;;;;;;;17.33;9.53;;;12.60;62.40;;;;;;5095586;28;20455;-67
2021/04/18 08:05:15;;;;;;;15.73;10.00;;;12.80;61.50;;;;;;5095527;28;20458;-67
2021/04/18 08:08:02;;;;;;;16.43;10.73;;;12.90;61.00;;;;;;5095386;28;20440;-67
2021/04/18 08:10:46;;;;;;;14.07;9.93;;;13.10;60.70;;;;;;5095399;28;20481;-67
2021/04/18 08:13:15;;;;;;;9.27;8.27;;;13.10;59.40;;;;;;5095260;28;20464;-67
2021/04/18 08:15:43;;;;;;;13.83;8.27;;;13.20;59.00;;;;;;5095249;28;20482;-68
2021/04/18 08:18:12;;;;;;;14.03;9.33;;;13.30;58.80;;;;;;5095232;28;20458;-68
2021/04/18 08:20:40;;;;;;;15.73;11.30;;;13.50;58.40;;;;;;5095166;28;20432;-67
2021/04/18 08:23:09;;;;;;;8.90;7.97;;;13.70;58.30;;;;;;5094909;28;21046;-68
2021/04/18 08:25:58;;;;;;;12.10;9.63;;;13.80;57.50;;;;;;5095089;28;20459;-67
2021/04/18 08:28:24;;;;;;;15.17;8.07;;;13.90;57.30;;;;;;5095843;28;20941;-68
2021/04/18 08:31:06;;;;;;;16.40;10.77;;;14.10;56.90;;;;;;5096968;28;20431;-68
2021/04/18 08:33:47;;;;;;;12.10;9.10;;;14.20;57.20;;;;;;5095426;28;20517;-68
2021/04/18 08:36:15;;;;;;;14.00;8.40;;;14.30;56.20;;;;;;5095607;28;20831;-67
2021/04/18 08:38:43;;;;;;;11.57;9.63;;;14.30;56.20;;;;;;5095273;28;20447;-68
2021/04/18 08:41:13;;;;;;;9.67;8.60;;;14.30;56.00;;;;;;5095128;28;20428;-68
2021/04/18 08:43:39;;;;;;;13.57;8.93;;;14.30;56.00;;;;;;5095695;28;20820;-68
2021/04/18 08:46:05;;;;;;;10.30;8.67;;;14.30;55.50;;;;;;5094957;28;20472;-68
2021/04/18 08:48:32;;;;;;;14.90;10.13;;;14.40;55.80;;;;;;5094909;28;20860;-68
2021/04/18 08:51:00;;;;;;;10.23;8.43;;;14.50;55.90;;;;;;5094378;28;20450;-68
2021/04/18 08:53:27;;;;;;;15.30;9.37;;;14.60;55.10;;;;;;5094306;28;21041;-69
2021/04/18 08:55:56;;;;;;;12.40;8.87;;;14.60;54.70;;;;;;5093890;28;20495;-68
2021/04/18 08:58:35;;;;;;;12.23;8.90;;;14.60;55.00;;;;;;5094602;28;20444;-68
2021/04/18 09:01:06;;;;;;;10.17;9.07;;;14.60;54.40;;;;;;5094495;28;20455;-71
2021/04/18 09:03:32;;;;;;;12.50;9.13;;;14.50;54.20;;;;;;5094503;28;20432;-68
2021/04/18 09:06:11;;;;;;;12.67;9.47;;;14.40;55.20;;;;;;5094374;28;20468;-68
2021/04/18 09:08:49;;;;;;;11.83;9.50;;;14.60;55.50;;;;;;5094351;28;20435;-68
2021/04/18 09:11:16;;;;;;;16.30;9.30;;;14.60;54.90;;;;;;5094399;28;20446;-68
2021/04/18 09:13:54;;;;;;;13.93;9.33;;;14.60;54.30;;;;;;5094179;28;20479;-68
2021/04/18 09:16:24;;;;;;;10.40;8.50;;;14.60;53.90;;;;;;5094055;28;20834;-68
2021/04/18 09:18:51;;;;;;;13.30;9.90;;;14.50;54.20;;;;;;5094136;28;20447;-67
2021/04/18 09:21:17;;;;;;;11.50;8.70;;;14.30;54.30;;;;;;5093873;28;20960;-68
2021/04/18 09:23:57;;;;;;;11.90;9.20;;;14.30;55.40;;;;;;5094272;28;20809;-68
2021/04/18 09:26:23;;;;;;;13.07;9.53;;;14.40;55.30;;;;;;5093772;28;21057;-69
2021/04/18 09:29:10;;;;;;;11.67;9.00;;;14.50;54.60;;;;;;5093711;28;20933;-67
2021/04/18 09:31:52;;;;;;;11.70;9.70;;;14.70;55.00;;;;;;5094091;28;20443;-68
2021/04/18 09:34:21;;;;;;;13.97;9.47;;;14.70;54.00;;;;;;5093659;28;20989;-68
2021/04/18 09:36:49;;;;;;;11.30;8.33;;;14.90;53.90;;;;;;5093935;28;20467;-67
2021/04/18 09:39:15;;;;;;;14.87;9.63;;;15.10;53.90;;;;;;5093867;28;20453;-67
2021/04/18 09:41:42;;;;;;;11.00;9.00;;;15.30;53.40;;;;;;5093835;28;20439;-68
2021/04/18 09:44:26;;;;;;;11.80;9.83;;;15.40;53.40;;;;;;5093888;28;20930;-68
2021/04/18 09:46:52;;;;;;;13.00;9.60;;;15.40;53.00;;;;;;5093391;28;20475;-66
2021/04/18 09:49:18;;;;;;;10.47;8.30;;;15.40;52.80;;;;;;5093579;28;20447;-66
2021/04/18 09:51:57;;;;;;;15.00;9.63;;;15.40;53.10;;;;;;5094815;28;20443;-67
2021/04/18 09:54:29;;;;;;;14.00;9.50;;;15.30;52.80;;;;;;5095092;28;20520;-68
2021/04/18 09:57:19;;;;;;;11.80;8.07;;;15.10;52.90;;;;;;5093595;28;20483;-67
2021/04/18 10:00:08;;;;;;;10.97;8.97;;;15.10;53.30;;;;;;5093867;28;20432;-67
2021/04/18 10:02:34;;;;;;;13.80;8.23;;;15.10;54.00;;;;;;5093598;28;20804;-67
2021/04/18 10:05:13;;;;;;;14.67;9.17;;;15.20;53.40;;;;;;5093757;28;20864;-66
2021/04/18 10:07:40;;;;;;;10.33;8.70;;;15.30;53.10;;;;;;5093910;28;20920;-66
2021/04/18 10:10:07;;;;;;;9.50;8.50;;;15.40;53.30;;;;;;5097888;28;20451;-66
2021/04/18 10:12:51;;;;;;;13.10;9.70;;;15.50;52.50;;;;;;5097801;28;20449;-67
2021/04/18 10:15:20;;;;;;;12.40;9.10;;;15.50;53.00;;;;;;5097683;28;20430;-66
2021/04/18 10:17:47;;;;;;;11.80;8.97;;;15.70;52.70;;;;;;5097696;28;20447;-67
2021/04/18 10:20:23;;;;;;;10.10;8.60;;;16.00;52.20;;;;;;5097571;28;20432;-67
2021/04/18 10:23:03;;;;;;;10.60;9.00;;;16.50;51.60;;;;;;5097597;28;20441;-68
2021/04/18 10:25:29;;;;;;;10.90;9.00;;;16.90;50.00;;;;;;5097371;28;20435;-67
2021/04/18 10:27:56;;;;;;;7.70;6.77;;;17.10;49.50;;;;;;5097974;28;20428;-68
2021/04/18 10:30:24;;;;;;;10.50;8.03;;;17.40;48.30;;;;;;5097800;28;20443;-68
2021/04/18 10:32:50;;;;;;;11.10;8.93;;;17.60;47.70;;;;;;5097503;28;20444;-67
2021/04/18 10:35:16;;;;;;;9.50;8.20;;;17.90;47.40;;;;;;5097570;28;20818;-67
2021/04/18 10:37:44;;;;;;;12.03;8.67;;;18.20;47.00;;;;;;5097261;28;20447;-67
2021/04/18 10:40:11;;;;;;;13.50;9.87;;;18.50;46.30;;;;;;5097197;28;20444;-67
2021/04/18 10:42:38;;;;;;;12.43;9.30;;;18.70;45.10;;;;;;5096920;28;20447;-67
2021/04/18 10:45:05;;;;;;;10.00;7.73;;;18.90;44.80;;;;;;5096824;28;20515;-67
2021/04/18 10:47:32;;;;;;;11.80;8.47;;;19.10;44.40;;;;;;5097095;28;20467;-68
2021/04/18 10:50:00;;;;;;;13.60;8.23;;;19.10;42.20;;;;;;5096821;28;20949;-67
2021/04/18 10:52:32;;;;;;;9.63;7.60;;;18.90;42.40;;;;;;5097308;28;20450;-67
2021/04/18 10:54:58;;;;;;;8.40;6.67;;;19.00;43.00;;;;;;5096458;28;20515;-67
2021/04/18 10:57:25;;;;;;;9.23;7.00;;;19.10;43.00;;;;;;5097117;28;20464;-67
2021/04/18 10:59:51;;;;;;;8.80;7.70;;;19.20;42.40;;;;;;5096882;28;20439;-67
2021/04/18 11:02:18;;;;;;;11.67;8.13;;;19.30;42.90;;;;;;5096570;28;20975;-67
2021/04/18 11:04:45;;;;;;;10.00;7.33;;;19.10;43.10;;;;;;5096507;28;20937;-67
2021/04/18 11:07:11;;;;;;;8.63;6.70;;;19.00;43.30;;;;;;5096370;28;21189;-67
2021/04/18 11:09:38;;;;;;;9.50;6.80;;;19.20;43.20;;;;;;5096391;28;20803;-67
2021/04/18 11:12:13;;;;;;;7.97;6.50;;;19.50;42.90;;;;;;5096631;28;20496;-67
2021/04/18 11:14:40;;;;;;;11.07;6.80;;;19.70;42.20;;;;;;5096513;28;20467;-68
2021/04/18 11:17:06;;;;;;;11.33;8.00;;;19.90;41.60;;;;;;5096076;28;21030;-67
2021/04/18 11:19:32;;;;;;;8.63;7.33;;;19.90;41.20;;;;;;5096441;28;20512;-67
2021/04/18 11:21:59;;;;;;;8.17;5.90;;;19.60;39.40;;;;;;5096377;28;20455;-67
2021/04/18 11:24:26;;;;;;;7.17;6.20;;;19.50;39.10;;;;;;5096414;28;20447;-67
2021/04/18 11:26:52;;;;;;;8.37;7.20;;;19.40;39.70;;;;;;5095876;28;20988;-68
2021/04/18 11:29:19;;;;;;;10.77;6.87;;;19.20;39.40;;;;;;5096219;28;20444;-68
2021/04/18 11:31:45;;;;;;;9.70;6.03;;;19.10;40.40;;;;;;5097932;28;20467;-69
2021/04/18 11:34:11;;;;;;;7.80;6.80;;;19.00;41.30;;;;;;5097144;28;21020;-69
2021/04/18 11:36:37;;;;;;;10.90;7.17;;;19.10;41.30;;;;;;5097970;28;20472;-68
2021/04/18 11:39:05;;;;;;;11.93;6.97;;;19.10;41.10;;;;;;5096072;28;20459;-68
2021/04/18 11:41:32;;;;;;;8.57;7.20;;;18.90;40.50;;;;;;5095973;28;20561;-68
2021/04/18 11:43:58;;;;;;;11.37;7.57;;;18.80;41.90;;;;;;5096034;28;20443;-69
2021/04/18 11:46:26;;;;;;;8.27;7.17;;;18.50;41.90;;;;;;5096603;28;20464;-68
2021/04/18 11:48:52;;;;;;;11.83;6.73;;;18.40;42.50;;;;;;5095860;28;20452;-68
2021/04/18 11:51:18;;;;;;;9.20;6.77;;;18.30;43.00;;;;;;5095838;28;20444;-68
2021/04/18 11:53:45;;;;;;;8.73;6.43;;;18.40;43.10;;;;;;5095695;28;20504;-68
2021/04/18 11:56:12;;;;;;;9.77;7.60;;;18.60;43.40;;;;;;5095393;28;20467;-69
2021/04/18 11:58:38;;;;;;;8.70;7.37;;;18.70;42.80;;;;;;5095734;28;20813;-68
2021/04/18 12:01:05;;;;;;;12.17;8.27;;;18.70;42.30;;;;;;5095729;28;20450;-68
2021/04/18 12:03:31;;;;;;;11.23;8.33;;;18.50;42.50;;;;;;5095640;28;20443;-68
2021/04/18 12:05:58;;;;;;;10.37;7.70;;;18.50;43.50;;;;;;5095327;28;20996;-68
2021/04/18 12:08:24;;;;;;;9.40;8.40;;;18.30;42.50;;;;;;5095568;28;20475;-68
2021/04/18 12:10:50;;;;;;;12.00;7.87;;;18.20;43.00;;;;;;5095512;28;20440;-68
2021/04/18 12:13:18;;;;;;;10.33;7.03;;;17.90;43.20;;;;;;5095226;28;20451;-68
2021/04/18 12:15:45;;;;;;;10.40;7.60;;;17.90;43.80;;;;;;5095263;28;20460;-68
2021/04/18 12:18:11;;;;;;;10.67;8.23;;;17.70;43.80;;;;;;5095227;28;20451;-68
2021/04/18 12:20:37;;;;;;;9.10;7.73;;;17.70;43.70;;;;;;5095337;28;20432;-68
2021/04/18 12:23:04;;;;;;;8.97;7.47;;;17.70;44.50;;;;;;5095242;28;20444;-68
2021/04/18 12:25:30;;;;;;;8.33;7.30;;;17.80;44.00;;;;;;5095071;28;20440;-68
2021/04/18 12:27:57;;;;;;;8.73;7.50;;;17.90;44.00;;;;;;5095099;28;20443;-68
2021/04/18 12:30:24;;;;;;;9.03;7.63;;;18.10;44.00;;;;;;5094570;28;20420;-68
2021/04/18 12:32:51;;;;;;;11.93;8.23;;;18.30;43.50;;;;;;5095043;28;20448;-68
2021/04/18 12:35:17;;;;;;;9.93;7.60;;;18.40;41.90;;;;;;5094787;28;20480;-68
2021/04/18 12:37:44;;;;;;;9.03;7.20;;;18.40;42.50;;;;;;5094956;28;20505;-68
2021/04/18 12:40:11;;;;;;;10.40;7.90;;;18.50;42.80;;;;;;5094564;28;20443;-68
2021/04/18 12:42:37;;;;;;;9.17;8.10;;;18.80;43.00;;;;;;5094862;28;20795;-68
2021/04/18 12:45:09;;;;;;;9.23;7.20;;;19.10;42.30;;;;;;5094934;28;20432;-67
2021/04/18 12:47:36;;;;;;;8.60;7.30;;;19.60;41.90;;;;;;5094122;28;20468;-67
2021/04/18 12:50:04;;;;;;;9.87;8.20;;;20.00;40.90;;;;;;5094495;28;20432;-67